createdAt,value
2019-05-22T03:37:36.897Z,16.20
2019-05-22T03:38:36.886Z,16.14
2019-05-22T03:39:36.868Z,16.14
2019-05-22T03:40:36.850Z,16.12
2019-05-22T03:41:36.835Z,16.04
2019-05-22T03:42:36.828Z,16.04
2019-05-22T03:43:36.815Z,16.00
2019-05-22T03:44:36.791Z,15.93
2019-05-22T03:45:36.776Z,15.97
2019-05-22T03:46:36.762Z,15.89
2019-05-22T03:47:36.748Z,15.90
2019-05-22T03:48:36.734Z,15.94
2019-05-22T03:49:36.719Z,15.93
2019-05-22T03:50:36.708Z,15.94
2019-05-22T03:51:36.741Z,15.92
2019-05-22T03:52:36.674Z,15.92
2019-05-22T03:53:36.667Z,16.04
2019-05-22T03:54:36.644Z,16.08
2019-05-22T03:55:36.652Z,15.97
2019-05-22T03:56:36.609Z,15.93
2019-05-22T03:57:36.607Z,15.94
2019-05-22T03:58:36.584Z,15.90
2019-05-22T03:59:36.570Z,15.93
2019-05-22T04:00:36.559Z,15.83
2019-05-22T04:01:36.544Z,15.84
2019-05-22T04:02:36.530Z,15.80
2019-05-22T04:03:36.513Z,15.92
2019-05-22T04:04:36.610Z,15.89
2019-05-22T04:05:36.483Z,15.90
2019-05-22T04:06:36.472Z,15.90
2019-05-22T04:07:36.450Z,15.96
2019-05-22T04:08:36.437Z,15.92
2019-05-22T04:09:36.438Z,15.93
2019-05-22T04:10:40.595Z,15.94
2019-05-22T04:11:36.390Z,15.90
2019-05-22T04:12:36.390Z,15.96
2019-05-22T04:13:36.358Z,15.82
2019-05-22T04:14:36.345Z,15.96
2019-05-22T04:15:36.329Z,15.94
2019-05-22T04:16:36.316Z,15.94
2019-05-22T04:17:36.348Z,16.00
2019-05-22T04:18:36.288Z,15.83
2019-05-22T04:19:48.437Z,15.86
2019-05-22T04:20:36.258Z,15.86
2019-05-22T04:21:36.241Z,15.90
2019-05-22T04:22:36.234Z,15.89
2019-05-22T04:23:36.217Z,15.93
2019-05-22T04:24:36.197Z,15.97
2019-05-22T04:25:36.179Z,15.97
2019-05-22T04:26:36.165Z,15.87
2019-05-22T04:27:36.154Z,15.90
2019-05-22T04:28:36.134Z,15.83
2019-05-22T04:29:36.122Z,15.83
2019-05-22T04:30:36.106Z,15.84
2019-05-22T04:31:36.090Z,15.90
2019-05-22T04:32:36.074Z,15.83
2019-05-22T04:33:36.069Z,15.80
2019-05-22T04:34:36.050Z,15.86
2019-05-22T04:35:36.037Z,15.71
2019-05-22T04:36:36.014Z,15.72
2019-05-22T04:37:36.002Z,15.72
2019-05-22T04:38:35.984Z,15.69
2019-05-22T04:39:35.969Z,15.69
2019-05-22T04:40:35.950Z,15.71
2019-05-22T04:41:35.955Z,15.68
2019-05-22T04:42:35.929Z,15.60
2019-05-22T04:43:35.908Z,15.53
2019-05-22T04:44:35.891Z,15.60
2019-05-22T04:45:35.886Z,15.59
2019-05-22T04:46:35.863Z,15.62
2019-05-22T04:47:35.849Z,15.54
2019-05-22T04:48:35.837Z,15.54
2019-05-22T04:49:35.817Z,15.53
2019-05-22T04:50:35.856Z,15.49
2019-05-22T04:51:35.791Z,15.46
2019-05-22T04:52:35.772Z,15.51
2019-05-22T04:53:35.764Z,15.49
2019-05-22T04:54:35.742Z,15.47
2019-05-22T04:55:35.733Z,15.39
2019-05-22T04:56:35.708Z,15.25
2019-05-22T04:57:35.695Z,15.25
2019-05-22T04:58:35.678Z,15.36
2019-05-22T04:59:35.664Z,15.27
2019-05-22T05:00:35.651Z,15.34
2019-05-22T05:01:35.628Z,15.28
2019-05-22T05:02:35.620Z,15.25
2019-05-22T05:03:35.625Z,15.29
2019-05-22T05:04:35.603Z,15.23
2019-05-22T05:05:35.574Z,15.25
2019-05-22T05:06:35.566Z,15.25
2019-05-22T05:07:35.539Z,15.23
2019-05-22T05:08:35.524Z,15.13
2019-05-22T05:09:35.510Z,15.16
2019-05-22T05:10:35.493Z,15.16
2019-05-22T05:11:35.477Z,15.16
2019-05-22T05:12:35.462Z,15.06
2019-05-22T05:13:35.449Z,15.10
2019-05-22T05:14:35.436Z,15.03
2019-05-22T05:15:37.342Z,15.03
2019-05-22T05:16:35.409Z,14.96
2019-05-22T05:17:35.385Z,14.95
2019-05-22T05:18:35.366Z,14.96
2019-05-22T05:19:35.354Z,14.94
2019-05-22T05:20:35.338Z,14.89
2019-05-22T05:21:35.320Z,14.94
2019-05-22T05:22:35.300Z,14.98
2019-05-22T05:23:35.289Z,14.86
2019-05-22T05:24:35.274Z,14.86
2019-05-22T05:25:35.260Z,14.84
2019-05-22T05:26:35.243Z,14.83
2019-05-22T05:27:35.320Z,14.84
2019-05-22T05:28:35.228Z,14.84
2019-05-22T05:29:35.205Z,14.83
2019-05-22T05:30:35.182Z,14.88
2019-05-22T05:31:35.164Z,14.86
2019-05-22T05:32:35.144Z,14.86
2019-05-22T05:33:35.130Z,14.80
2019-05-22T05:34:35.118Z,14.80
2019-05-22T05:35:35.102Z,14.81
2019-05-22T05:36:35.080Z,14.89
2019-05-22T05:37:35.068Z,14.80
2019-05-22T05:38:35.053Z,14.75
2019-05-22T05:39:35.127Z,14.80
2019-05-22T05:40:35.023Z,14.81
2019-05-22T05:41:34.999Z,14.77
2019-05-22T05:42:34.986Z,14.81
2019-05-22T05:43:35.008Z,14.75
2019-05-22T05:44:34.956Z,14.75
2019-05-22T05:45:34.942Z,14.73
2019-05-22T05:46:34.923Z,14.73
2019-05-22T05:47:34.910Z,14.72
2019-05-22T05:48:34.894Z,14.75
2019-05-22T05:49:34.895Z,14.75
2019-05-22T05:50:39.444Z,14.80
2019-05-22T05:51:34.848Z,14.64
2019-05-22T05:52:34.835Z,14.68
2019-05-22T05:53:34.820Z,14.70
2019-05-22T05:54:34.795Z,14.72
2019-05-22T05:55:34.778Z,14.65
2019-05-22T05:56:34.763Z,14.70
2019-05-22T05:57:34.745Z,14.69
2019-05-22T05:58:34.739Z,14.77
2019-05-22T05:59:34.717Z,14.72
2019-05-22T06:00:34.704Z,14.73
2019-05-22T06:01:34.714Z,14.65
2019-05-22T06:02:34.669Z,14.68
2019-05-22T06:03:34.656Z,14.75
2019-05-22T06:04:35.610Z,14.73
2019-05-22T06:05:34.616Z,14.64
2019-05-22T06:06:34.602Z,14.68
2019-05-22T06:07:34.593Z,14.73
2019-05-22T06:08:34.572Z,14.72
2019-05-22T06:09:34.559Z,14.70
2019-05-22T06:10:37.121Z,14.69
2019-05-22T06:11:34.524Z,14.69
2019-05-22T06:12:34.502Z,14.68
2019-05-22T06:13:34.494Z,14.68
2019-05-22T06:14:34.477Z,14.73
2019-05-22T06:15:46.691Z,14.77
2019-05-22T06:16:34.444Z,14.73
2019-05-22T06:17:34.429Z,14.73
2019-05-22T06:18:34.418Z,14.73
2019-05-22T06:19:34.398Z,14.72
2019-05-22T06:20:34.385Z,14.70
2019-05-22T06:21:34.359Z,14.73
2019-05-22T06:22:34.348Z,14.70
2019-05-22T06:23:34.337Z,14.72
2019-05-22T06:24:34.311Z,14.68
2019-05-22T06:25:34.296Z,14.72
2019-05-22T06:26:34.280Z,14.68
2019-05-22T06:27:34.262Z,14.62
2019-05-22T06:28:34.249Z,14.70
2019-05-22T06:29:34.233Z,14.60
2019-05-22T06:30:34.215Z,14.75
2019-05-22T06:31:34.211Z,14.72
2019-05-22T06:32:34.183Z,14.64
2019-05-22T06:33:34.174Z,14.57
2019-05-22T06:34:34.151Z,14.65
2019-05-22T06:35:34.137Z,14.65
2019-05-22T06:36:34.124Z,14.65
2019-05-22T06:37:34.102Z,14.62
2019-05-22T06:38:34.087Z,14.70
2019-05-22T06:39:34.071Z,14.60
2019-05-22T06:40:34.060Z,14.61
2019-05-22T06:41:34.037Z,14.57
2019-05-22T06:42:34.021Z,14.57
2019-05-22T06:43:34.009Z,14.45
2019-05-22T06:44:33.999Z,14.51
2019-05-22T06:45:35.644Z,14.58
2019-05-22T06:46:33.959Z,14.64
2019-05-22T06:47:33.940Z,14.58
2019-05-22T06:48:33.929Z,14.62
2019-05-22T06:49:33.909Z,14.60
2019-05-22T06:50:33.893Z,14.52
2019-05-22T06:51:33.877Z,14.46
2019-05-22T06:52:33.864Z,14.50
2019-05-22T06:53:33.841Z,14.35
2019-05-22T06:54:33.827Z,14.35
2019-05-22T06:55:33.812Z,14.42
2019-05-22T06:56:33.800Z,14.36
2019-05-22T06:57:33.784Z,14.42
2019-05-22T06:58:33.763Z,14.20
2019-05-22T06:59:33.748Z,14.36
2019-05-22T07:00:33.735Z,14.28
2019-05-22T07:01:33.716Z,14.24
2019-05-22T07:02:33.704Z,14.29
2019-05-22T07:03:33.683Z,14.24
2019-05-22T07:04:33.670Z,14.28
2019-05-22T07:05:33.653Z,14.33
2019-05-22T07:06:33.637Z,14.33
2019-05-22T07:07:33.616Z,14.22
2019-05-22T07:08:33.604Z,14.24
2019-05-22T07:09:33.585Z,14.27
2019-05-22T07:10:33.575Z,14.28
2019-05-22T07:11:33.549Z,14.35
2019-05-22T07:12:33.553Z,14.22
2019-05-22T07:13:33.517Z,14.21
2019-05-22T07:14:33.506Z,14.25
2019-05-22T07:15:33.485Z,14.32
2019-05-22T07:16:33.470Z,14.28
2019-05-22T07:17:33.458Z,14.33
2019-05-22T07:18:33.443Z,14.20
2019-05-22T07:19:33.425Z,14.33
2019-05-22T07:20:33.408Z,14.21
2019-05-22T07:21:34.234Z,14.33
2019-05-22T07:22:33.375Z,14.27
2019-05-22T07:23:33.354Z,14.35
2019-05-22T07:24:33.333Z,14.27
2019-05-22T07:25:33.320Z,14.27
2019-05-22T07:26:33.308Z,14.28
2019-05-22T07:27:36.594Z,14.37
2019-05-22T07:28:33.358Z,14.35
2019-05-22T07:29:33.258Z,14.40
2019-05-22T07:30:33.238Z,14.43
2019-05-22T07:31:33.224Z,14.29
2019-05-22T07:32:33.210Z,14.33
2019-05-22T07:33:33.189Z,14.36
2019-05-22T07:34:33.176Z,14.29
2019-05-22T07:35:49.737Z,14.29
2019-05-22T07:36:33.140Z,14.28
2019-05-22T07:37:33.126Z,14.32
2019-05-22T07:38:33.110Z,14.35
2019-05-22T07:39:33.092Z,14.32
2019-05-22T07:40:33.074Z,14.39
2019-05-22T07:41:33.064Z,14.37
2019-05-22T07:42:33.041Z,14.50
2019-05-22T07:43:33.122Z,14.46
2019-05-22T07:44:33.009Z,14.43
2019-05-22T07:45:32.994Z,14.55
2019-05-22T07:46:32.982Z,14.46
2019-05-22T07:47:32.990Z,14.45
2019-05-22T07:48:32.942Z,14.45
2019-05-22T07:49:32.932Z,14.46
2019-05-22T07:50:32.915Z,14.52
2019-05-22T07:51:32.903Z,14.55
2019-05-22T07:52:32.878Z,14.43
2019-05-22T07:53:32.868Z,14.52
2019-05-22T07:54:32.846Z,14.50
2019-05-22T07:55:32.838Z,14.50
2019-05-22T07:56:32.816Z,14.42
2019-05-22T07:57:32.796Z,14.51
2019-05-22T07:58:32.785Z,14.60
2019-05-22T07:59:32.774Z,14.54
2019-05-22T08:00:32.753Z,14.57
2019-05-22T08:01:32.744Z,14.55
2019-05-22T08:02:32.726Z,14.61
2019-05-22T08:03:32.704Z,14.58
2019-05-22T08:04:32.697Z,14.60
2019-05-22T08:05:32.674Z,14.62
2019-05-22T08:06:32.653Z,14.58
2019-05-22T08:07:32.641Z,14.64
2019-05-22T08:08:32.621Z,14.57
2019-05-22T08:09:32.601Z,14.60
2019-05-22T08:10:32.588Z,14.68
2019-05-22T08:11:32.575Z,14.65
2019-05-22T08:12:32.555Z,14.68
2019-05-22T08:13:32.545Z,14.70
2019-05-22T08:14:32.525Z,14.69
2019-05-22T08:15:32.507Z,14.68
2019-05-22T08:16:32.494Z,14.65
2019-05-22T08:17:32.475Z,14.75
2019-05-22T08:18:32.467Z,14.78
2019-05-22T08:19:32.449Z,14.73
2019-05-22T08:20:32.456Z,14.75
2019-05-22T08:21:32.413Z,14.75
2019-05-22T08:22:32.393Z,14.73
2019-05-22T08:23:32.387Z,14.72
2019-05-22T08:24:32.364Z,14.62
2019-05-22T08:25:32.361Z,14.73
2019-05-22T08:26:32.340Z,14.69
2019-05-22T08:27:32.321Z,14.70
2019-05-22T08:28:32.306Z,14.70
2019-05-22T08:29:32.297Z,14.75
2019-05-22T08:30:32.271Z,14.73
2019-05-22T08:31:32.254Z,14.78
2019-05-22T08:32:32.239Z,14.72
2019-05-22T08:33:32.222Z,14.75
2019-05-22T08:34:32.210Z,14.72
2019-05-22T08:35:32.191Z,14.72
2019-05-22T08:36:32.173Z,14.70
2019-05-22T08:37:32.157Z,14.72
2019-05-22T08:38:32.154Z,14.70
2019-05-22T08:39:32.135Z,14.80
2019-05-22T08:40:32.109Z,14.78
2019-05-22T08:41:32.090Z,14.73
2019-05-22T08:42:35.299Z,14.70
2019-05-22T08:43:32.059Z,14.80
2019-05-22T08:44:32.047Z,14.77
2019-05-22T08:45:32.033Z,14.81
2019-05-22T08:46:32.025Z,14.81
2019-05-22T08:47:32.006Z,14.83
2019-05-22T08:48:31.981Z,14.89
2019-05-22T08:49:31.970Z,14.84
2019-05-22T08:50:31.946Z,14.86
2019-05-22T08:51:31.934Z,14.99
2019-05-22T08:52:31.918Z,14.92
2019-05-22T08:53:46.177Z,14.92
2019-05-22T08:54:31.886Z,14.98
2019-05-22T08:55:31.870Z,15.03
2019-05-22T08:56:31.859Z,14.89
2019-05-22T08:57:31.842Z,14.88
2019-05-22T08:58:31.824Z,14.86
2019-05-22T08:59:31.805Z,14.94
2019-05-22T09:00:31.795Z,14.95
2019-05-22T09:01:31.773Z,14.94
2019-05-22T09:02:31.761Z,14.94
2019-05-22T09:03:31.837Z,14.95
2019-05-22T09:04:31.744Z,14.91
2019-05-22T09:05:31.917Z,14.88
2019-05-22T09:06:31.698Z,14.94
2019-05-22T09:07:31.700Z,14.89
2019-05-22T09:08:31.665Z,14.91
2019-05-22T09:09:31.651Z,14.96
2019-05-22T09:10:31.634Z,14.98
2019-05-22T09:11:31.621Z,14.92
2019-05-22T09:12:31.615Z,15.06
2019-05-22T09:13:31.591Z,15.01
2019-05-22T09:14:31.571Z,15.07
2019-05-22T09:15:31.558Z,15.09
2019-05-22T09:16:31.539Z,15.10
2019-05-22T09:17:31.528Z,15.03
2019-05-22T09:18:31.532Z,15.14
2019-05-22T09:19:31.497Z,15.06
2019-05-22T09:20:47.740Z,15.13
2019-05-22T09:21:31.471Z,15.07
2019-05-22T09:22:40.291Z,15.09
2019-05-22T09:23:31.430Z,15.09
2019-05-22T09:24:31.414Z,15.02
2019-05-22T09:25:31.406Z,15.10
2019-05-22T09:26:31.398Z,15.19
2019-05-22T09:27:31.378Z,15.28
2019-05-22T09:28:31.378Z,15.25
2019-05-22T09:29:31.365Z,15.27
2019-05-22T09:30:31.329Z,15.29
2019-05-22T09:31:31.306Z,15.27
2019-05-22T09:32:31.291Z,15.32
2019-05-22T09:33:31.396Z,15.23
2019-05-22T09:34:31.261Z,15.25
2019-05-22T09:35:31.249Z,15.31
2019-05-22T09:36:31.233Z,15.29
2019-05-22T09:37:31.218Z,15.32
2019-05-22T09:38:31.203Z,15.43
2019-05-22T09:39:31.188Z,15.41
2019-05-22T09:40:31.172Z,15.31
2019-05-22T09:41:31.154Z,15.49
2019-05-22T09:42:31.146Z,15.53
2019-05-22T09:43:31.130Z,15.51
2019-05-22T09:44:31.110Z,15.56
2019-05-22T09:45:31.223Z,15.49
2019-05-22T09:46:31.093Z,15.36
2019-05-22T09:47:31.093Z,15.38
2019-05-22T09:48:31.051Z,15.49
2019-05-22T09:49:31.036Z,15.43
2019-05-22T09:50:31.015Z,15.56
2019-05-22T09:51:31.008Z,15.68
2019-05-22T09:52:30.989Z,15.54
2019-05-22T09:53:30.983Z,15.65
2019-05-22T09:54:30.959Z,15.60
2019-05-22T09:55:30.940Z,15.64
2019-05-22T09:56:30.936Z,15.59
2019-05-22T09:57:30.916Z,15.59
2019-05-22T09:58:30.901Z,15.59
2019-05-22T09:59:30.880Z,15.57
2019-05-22T10:00:30.866Z,15.57
2019-05-22T10:01:30.855Z,15.57
2019-05-22T10:02:30.836Z,15.49
2019-05-22T10:03:30.823Z,15.49
2019-05-22T10:04:30.804Z,15.50
2019-05-22T10:05:30.836Z,15.54
2019-05-22T10:06:30.776Z,15.56
2019-05-22T10:07:30.762Z,15.46
2019-05-22T10:08:30.751Z,15.49
2019-05-22T10:09:30.732Z,15.43
2019-05-22T10:10:30.721Z,15.43
2019-05-22T10:11:30.701Z,15.49
2019-05-22T10:12:30.690Z,15.44
2019-05-22T10:13:30.842Z,15.43
2019-05-22T10:14:30.654Z,15.43
2019-05-22T10:15:30.638Z,15.44
2019-05-22T10:16:30.624Z,15.44
2019-05-22T10:17:30.609Z,15.51
2019-05-22T10:18:30.620Z,15.46
2019-05-22T10:19:30.579Z,15.43
2019-05-22T10:20:30.565Z,15.36
2019-05-22T10:21:30.549Z,15.35
2019-05-22T10:22:30.536Z,15.44
2019-05-22T10:23:30.523Z,15.43
2019-05-22T10:24:30.505Z,15.36
2019-05-22T10:25:30.488Z,15.47
2019-05-22T10:26:30.474Z,15.53
2019-05-22T10:27:30.472Z,15.39
2019-05-22T10:28:30.450Z,15.34
2019-05-22T10:29:32.289Z,15.34
2019-05-22T10:30:30.416Z,15.36
2019-05-22T10:31:30.398Z,15.41
2019-05-22T10:32:32.157Z,15.49
2019-05-22T10:33:30.369Z,15.44
2019-05-22T10:34:30.351Z,15.39
2019-05-22T10:35:30.340Z,15.49
2019-05-22T10:36:30.321Z,15.56
2019-05-22T10:37:30.306Z,15.60
2019-05-22T10:38:30.291Z,15.50
2019-05-22T10:39:30.275Z,15.54
2019-05-22T10:40:30.262Z,15.56
2019-05-22T10:41:30.245Z,15.56
2019-05-22T10:42:30.229Z,15.60
2019-05-22T10:43:30.218Z,15.64
2019-05-22T10:44:30.199Z,15.59
2019-05-22T10:45:30.190Z,15.64
2019-05-22T10:46:30.169Z,15.67
2019-05-22T10:47:30.158Z,15.67
2019-05-22T10:48:30.147Z,15.65
2019-05-22T10:49:30.127Z,15.60
2019-05-22T10:50:30.117Z,15.64
2019-05-22T10:51:30.101Z,15.60
2019-05-22T10:52:30.083Z,15.57
2019-05-22T10:53:34.192Z,15.57
2019-05-22T10:54:30.055Z,15.64
2019-05-22T10:55:30.038Z,15.57
2019-05-22T10:56:30.021Z,15.57
2019-05-22T10:57:30.010Z,15.62
2019-05-22T10:58:29.999Z,15.57
2019-05-22T10:59:29.983Z,15.60
2019-05-22T11:00:29.959Z,15.67
2019-05-22T11:01:29.953Z,15.46
2019-05-22T11:02:29.925Z,15.49
2019-05-22T11:03:29.926Z,15.43
2019-05-22T11:04:29.910Z,15.49
2019-05-22T11:05:29.884Z,15.34
2019-05-22T11:06:29.871Z,15.46
2019-05-22T11:07:29.863Z,15.34
2019-05-22T11:08:34.228Z,15.36
2019-05-22T11:09:29.820Z,15.38
2019-05-22T11:10:29.805Z,15.34
2019-05-22T11:11:29.797Z,15.43
2019-05-22T11:12:29.780Z,15.41
2019-05-22T11:13:29.763Z,15.46
2019-05-22T11:14:29.746Z,15.41
2019-05-22T11:15:29.808Z,15.46
2019-05-22T11:16:29.715Z,15.50
2019-05-22T11:17:29.702Z,15.56
2019-05-22T11:18:29.689Z,15.47
2019-05-22T11:19:29.667Z,15.46
2019-05-22T11:20:29.656Z,15.51
2019-05-22T11:21:29.642Z,15.51
2019-05-22T11:22:29.627Z,15.46
2019-05-22T11:23:29.612Z,15.36
2019-05-22T11:24:29.600Z,15.38
2019-05-22T11:25:29.649Z,15.44
2019-05-22T11:26:29.564Z,15.41
2019-05-22T11:27:29.556Z,15.34
2019-05-22T11:28:29.541Z,15.27
2019-05-22T11:29:29.525Z,15.35
2019-05-22T11:30:29.512Z,15.29
2019-05-22T11:31:29.494Z,15.25
2019-05-22T11:32:29.475Z,15.21
2019-05-22T11:33:29.464Z,15.29
2019-05-22T11:34:29.473Z,15.28
2019-05-22T11:35:29.429Z,15.31
2019-05-22T11:36:29.413Z,15.31
2019-05-22T11:37:29.400Z,15.38
2019-05-22T11:38:29.379Z,15.29
2019-05-22T11:39:38.686Z,15.34
2019-05-22T11:40:29.354Z,15.29
2019-05-22T11:41:29.341Z,15.19
2019-05-22T11:42:29.323Z,15.16
2019-05-22T11:43:29.313Z,15.13
2019-05-22T11:44:29.325Z,15.21
2019-05-22T11:45:29.278Z,15.28
2019-05-22T11:46:29.262Z,15.25
2019-05-22T11:47:29.265Z,15.23
2019-05-22T11:48:29.234Z,15.19
2019-05-22T11:49:29.220Z,15.20
2019-05-22T11:50:29.201Z,15.19
2019-05-22T11:51:29.191Z,15.25
2019-05-22T11:52:29.171Z,15.25
2019-05-22T11:53:29.169Z,15.27
2019-05-22T11:54:29.141Z,15.28
2019-05-22T11:55:44.264Z,15.29
2019-05-22T11:56:29.110Z,15.28
2019-05-22T11:57:29.091Z,15.27
2019-05-22T11:58:29.080Z,15.32
2019-05-22T11:59:29.062Z,15.25
2019-05-22T12:00:29.090Z,15.29
2019-05-22T12:01:29.029Z,15.29
2019-05-22T12:02:29.031Z,15.27
2019-05-22T12:03:29.013Z,15.29
2019-05-22T12:04:45.775Z,15.27
2019-05-22T12:05:28.968Z,15.28
2019-05-22T12:06:29.278Z,15.23
2019-05-22T12:07:28.942Z,15.09
2019-05-22T12:08:28.924Z,15.11
2019-05-22T12:09:28.910Z,15.16
2019-05-22T12:10:28.904Z,15.13
2019-05-22T12:11:28.875Z,15.16
2019-05-22T12:12:28.863Z,15.06
2019-05-22T12:13:28.857Z,15.11
2019-05-22T12:14:28.830Z,15.14
2019-05-22T12:15:28.818Z,15.20
2019-05-22T12:16:28.804Z,15.27
2019-05-22T12:17:38.286Z,15.31
2019-05-22T12:18:28.766Z,15.31
2019-05-22T12:19:28.802Z,15.38
2019-05-22T12:20:28.813Z,15.28
2019-05-22T12:21:28.718Z,15.27
2019-05-22T12:22:28.706Z,15.25
2019-05-22T12:23:28.703Z,15.23
2019-05-22T12:24:36.417Z,15.19
2019-05-22T12:25:28.659Z,15.25
2019-05-22T12:26:28.661Z,15.21
2019-05-22T12:27:28.631Z,15.25
2019-05-22T12:28:28.616Z,15.27
2019-05-22T12:29:28.596Z,15.20
2019-05-22T12:30:28.589Z,15.23
2019-05-22T12:31:28.572Z,15.27
2019-05-22T12:32:28.555Z,15.27
2019-05-22T12:33:28.536Z,15.34
2019-05-22T12:34:28.524Z,15.29
2019-05-22T12:35:28.510Z,15.21
2019-05-22T12:36:28.490Z,15.23
2019-05-22T12:37:28.507Z,15.20
2019-05-22T12:38:28.479Z,15.21
2019-05-22T12:39:28.445Z,15.21
2019-05-22T12:40:28.435Z,15.13
2019-05-22T12:41:28.414Z,15.07
2019-05-22T12:42:28.401Z,15.09
2019-05-22T12:43:28.387Z,15.02
2019-05-22T12:44:28.369Z,14.94
2019-05-22T12:45:28.350Z,14.98
2019-05-22T12:46:28.332Z,14.92
2019-05-22T12:47:28.320Z,14.92
2019-05-22T12:48:28.309Z,14.95
2019-05-22T12:49:28.284Z,15.03
2019-05-22T12:50:28.273Z,15.17
2019-05-22T12:51:28.270Z,15.13
2019-05-22T12:52:28.244Z,15.14
2019-05-22T12:53:28.235Z,14.99
2019-05-22T12:54:45.235Z,14.98
2019-05-22T12:55:28.199Z,14.92
2019-05-22T12:56:28.181Z,14.94
2019-05-22T12:57:28.168Z,14.94
2019-05-22T12:58:28.153Z,14.94
2019-05-22T12:59:28.136Z,14.96
2019-05-22T13:00:28.130Z,14.98
2019-05-22T13:01:28.103Z,14.99
2019-05-22T13:02:28.086Z,14.96
2019-05-22T13:03:28.075Z,14.91
2019-05-22T13:04:28.053Z,14.96
2019-05-22T13:05:28.043Z,14.98
2019-05-22T13:06:28.024Z,14.89
2019-05-22T13:07:28.015Z,14.94
2019-05-22T13:08:27.993Z,15.03
2019-05-22T13:09:27.976Z,14.92
2019-05-22T13:10:28.066Z,14.92
2019-05-22T13:11:27.946Z,14.92
2019-05-22T13:12:27.931Z,14.95
2019-05-22T13:13:27.916Z,14.91
2019-05-22T13:14:27.900Z,14.83
2019-05-22T13:15:27.885Z,14.86
2019-05-22T13:16:27.865Z,14.84
2019-05-22T13:17:27.857Z,14.92
2019-05-22T13:18:27.841Z,14.95
2019-05-22T13:19:27.824Z,14.92
2019-05-22T13:20:41.733Z,14.95
2019-05-22T13:21:27.791Z,14.99
2019-05-22T13:22:27.778Z,15.10
2019-05-22T13:23:27.757Z,15.09
2019-05-22T13:24:27.743Z,15.06
2019-05-22T13:25:27.730Z,15.02
2019-05-22T13:26:27.710Z,15.16
2019-05-22T13:27:27.696Z,15.11
2019-05-22T13:28:27.689Z,15.10
2019-05-22T13:29:27.664Z,15.10
2019-05-22T13:30:28.797Z,15.13
2019-05-22T13:31:27.629Z,15.13
2019-05-22T13:32:27.620Z,15.13
2019-05-22T13:33:27.598Z,15.06
2019-05-22T13:34:27.590Z,15.13
2019-05-22T13:35:27.586Z,15.09
2019-05-22T13:36:27.545Z,15.13
2019-05-22T13:37:27.535Z,15.07
2019-05-22T13:38:27.521Z,15.02
2019-05-22T13:39:27.505Z,14.91
2019-05-22T13:40:28.202Z,14.98
2019-05-22T13:41:27.478Z,14.94
2019-05-22T13:42:27.467Z,15.03
2019-05-22T13:43:27.514Z,15.03
2019-05-22T13:44:27.431Z,15.07
2019-05-22T13:45:29.711Z,14.99
2019-05-22T13:46:27.404Z,15.10
2019-05-22T13:47:27.381Z,15.03
2019-05-22T13:48:27.362Z,15.03
2019-05-22T13:49:27.351Z,15.06
2019-05-22T13:50:28.882Z,15.07
2019-05-22T13:51:27.321Z,15.07
2019-05-22T13:52:27.303Z,15.02
2019-05-22T13:53:27.286Z,15.01
2019-05-22T13:54:27.276Z,14.99
2019-05-22T13:55:27.254Z,15.07
2019-05-22T13:56:27.246Z,14.99
2019-05-22T13:57:27.223Z,15.03
2019-05-22T13:58:27.215Z,15.06
2019-05-22T13:59:27.195Z,15.19
2019-05-22T14:00:27.174Z,15.10
2019-05-22T14:01:27.162Z,15.17
2019-05-22T14:02:27.479Z,15.27
2019-05-22T14:03:27.127Z,15.29
2019-05-22T14:04:27.122Z,15.34
2019-05-22T14:05:27.099Z,15.34
2019-05-22T14:06:27.082Z,15.27
2019-05-22T14:07:27.063Z,15.27
2019-05-22T14:08:27.049Z,15.23
2019-05-22T14:09:27.034Z,15.25
2019-05-22T14:10:27.016Z,15.13
2019-05-22T14:11:27.009Z,15.21
2019-05-22T14:12:26.993Z,15.14
2019-05-22T14:13:26.975Z,15.13
2019-05-22T14:14:26.955Z,15.10
2019-05-22T14:15:26.939Z,15.14
2019-05-22T14:16:26.929Z,15.11
2019-05-22T14:17:26.915Z,15.07
2019-05-22T14:19:26.878Z,15.19
2019-05-22T14:20:26.883Z,15.10
2019-05-22T14:21:26.850Z,15.11
2019-05-22T14:22:26.839Z,15.14
2019-05-22T14:23:26.816Z,15.11
2019-05-22T14:24:26.806Z,15.19
2019-05-22T14:25:26.783Z,15.17
2019-05-22T14:26:29.858Z,15.20
2019-05-22T14:27:26.752Z,15.09
2019-05-22T14:28:26.737Z,15.09
2019-05-22T14:29:26.720Z,15.16
2019-05-22T14:30:26.706Z,15.17
2019-05-22T14:31:26.695Z,15.14
2019-05-22T14:32:29.880Z,15.17
2019-05-22T14:33:28.281Z,15.02
2019-05-22T14:34:26.644Z,15.19
2019-05-22T14:35:26.628Z,15.13
2019-05-22T14:36:26.609Z,15.09
2019-05-22T14:37:26.594Z,15.02
2019-05-22T14:38:26.584Z,14.98
2019-05-22T14:39:26.564Z,15.07
2019-05-22T14:40:26.551Z,15.13
2019-05-22T14:41:26.532Z,15.10
2019-05-22T14:42:26.519Z,15.03
2019-05-22T14:43:26.501Z,14.99
2019-05-22T14:44:26.485Z,15.02
2019-05-22T14:45:26.466Z,14.99
2019-05-22T14:46:26.455Z,14.98
2019-05-22T14:47:26.440Z,15.01
2019-05-22T14:48:26.418Z,14.92
2019-05-22T14:49:26.404Z,14.94
2019-05-22T14:50:26.394Z,14.98
2019-05-22T14:51:26.375Z,14.99
2019-05-22T14:52:26.358Z,14.91
2019-05-22T14:53:26.348Z,14.86
2019-05-22T14:54:26.343Z,14.91
2019-05-22T14:55:26.312Z,14.92
2019-05-22T14:56:26.295Z,14.96
2019-05-22T14:57:26.284Z,14.83
2019-05-22T14:58:26.263Z,14.80
2019-05-22T14:59:26.248Z,14.84
2019-05-22T15:00:26.228Z,14.91
2019-05-22T15:01:26.218Z,14.81
2019-05-22T15:02:26.202Z,14.69
2019-05-22T15:03:26.199Z,14.78
2019-05-22T15:04:26.172Z,14.75
2019-05-22T15:05:26.154Z,14.70
2019-05-22T15:06:26.142Z,14.72
2019-05-22T15:07:26.128Z,14.68
2019-05-22T15:08:26.111Z,14.68
2019-05-22T15:09:26.092Z,14.68
2019-05-22T15:10:26.073Z,14.60
2019-05-22T15:11:26.065Z,14.70
2019-05-22T15:12:26.044Z,14.77
2019-05-22T15:13:26.037Z,14.75
2019-05-22T15:14:26.010Z,14.61
2019-05-22T15:15:25.997Z,14.61
2019-05-22T15:16:25.980Z,14.57
2019-05-22T15:17:32.596Z,14.61
2019-05-22T15:18:25.949Z,14.75
2019-05-22T15:19:25.947Z,14.72
2019-05-22T15:20:25.921Z,14.69
2019-05-22T15:21:25.896Z,14.69
2019-05-22T15:22:25.883Z,14.73
2019-05-22T15:23:25.871Z,14.75
2019-05-22T15:24:25.935Z,14.73
2019-05-22T15:25:25.834Z,14.77
2019-05-22T15:26:25.817Z,14.70
2019-05-22T15:27:25.805Z,14.70
2019-05-22T15:28:26.917Z,14.68
2019-05-22T15:29:25.771Z,14.68
2019-05-22T15:30:25.761Z,14.72
2019-05-22T15:31:25.737Z,14.68
2019-05-22T15:32:25.725Z,14.57
2019-05-22T15:33:25.705Z,14.64
2019-05-22T15:34:25.690Z,14.62
2019-05-22T15:35:25.674Z,14.60
2019-05-22T15:36:25.657Z,14.52
2019-05-22T15:37:25.641Z,14.57
2019-05-22T15:38:25.635Z,14.62
2019-05-22T15:39:25.681Z,14.72
2019-05-22T15:40:25.593Z,14.58
2019-05-22T15:41:25.581Z,14.65
2019-05-22T15:42:25.559Z,14.62
2019-05-22T15:43:26.190Z,14.65
2019-05-22T15:44:25.534Z,14.61
2019-05-22T15:45:25.512Z,14.60
2019-05-22T15:46:25.502Z,14.72
2019-05-22T15:47:25.479Z,14.72
2019-05-22T15:48:25.465Z,14.72
2019-05-22T15:49:25.466Z,14.68
2019-05-22T15:50:26.829Z,14.61
2019-05-22T15:51:25.419Z,14.65
2019-05-22T15:52:25.407Z,14.70
2019-05-22T15:53:25.386Z,14.65
2019-05-22T15:54:25.366Z,14.70
2019-05-22T15:55:25.349Z,14.68
2019-05-22T15:56:25.335Z,14.69
2019-05-22T15:57:25.317Z,14.69
2019-05-22T15:58:25.301Z,14.60
2019-05-22T15:59:25.315Z,14.68
2019-05-22T16:00:25.277Z,14.75
2019-05-22T16:01:25.252Z,14.70
2019-05-22T16:02:25.238Z,14.65
2019-05-22T16:03:25.221Z,14.72
2019-05-22T16:04:25.205Z,14.69
2019-05-22T16:05:25.190Z,14.70
2019-05-22T16:06:25.176Z,14.73
2019-05-22T16:07:25.153Z,14.72
2019-05-22T16:08:25.151Z,14.69
2019-05-22T16:09:25.134Z,14.69
2019-05-22T16:10:25.108Z,14.69
2019-05-22T16:11:25.090Z,14.73
2019-05-22T16:12:25.080Z,14.65
2019-05-22T16:13:25.061Z,14.65
2019-05-22T16:14:25.042Z,14.64
2019-05-22T16:15:25.055Z,14.73
2019-05-22T16:16:25.092Z,14.70
2019-05-22T16:17:25.017Z,14.69
2019-05-22T16:18:24.976Z,14.77
2019-05-22T16:19:25.068Z,14.70
2019-05-22T16:20:24.944Z,14.80
2019-05-22T16:21:24.936Z,14.68
2019-05-22T16:22:24.916Z,14.69
2019-05-22T16:23:24.898Z,14.65
2019-05-22T16:24:24.885Z,14.70
2019-05-22T16:25:24.866Z,14.62
2019-05-22T16:26:24.851Z,14.69
2019-05-22T16:27:24.835Z,14.70
2019-05-22T16:28:24.825Z,14.62
2019-05-22T16:29:24.795Z,14.60
2019-05-22T16:30:24.789Z,14.64